createdAt,value
2022-10-20T00:00:22.503Z,3.45
2022-10-20T00:02:49.346Z,3.19
2022-10-20T00:05:16.181Z,2.89
2022-10-20T00:07:42.740Z,2.78
2022-10-20T00:10:09.583Z,2.91
2022-10-20T00:12:36.601Z,2.82
2022-10-20T00:15:03.977Z,2.82
2022-10-20T00:17:30.582Z,2.84
2022-10-20T00:19:57.262Z,2.77
2022-10-20T00:22:23.836Z,2.86
2022-10-20T00:24:51.841Z,3.07
2022-10-20T00:27:18.462Z,3.19
2022-10-20T00:29:47.806Z,3.24
2022-10-20T00:32:14.495Z,3.13
2022-10-20T00:34:41.199Z,2.98
2022-10-20T00:37:07.847Z,3.11
2022-10-20T00:39:34.360Z,3.01
2022-10-20T00:42:04.837Z,2.79
2022-10-20T00:45:09.624Z,2.57
2022-10-20T00:47:41.180Z,2.41
2022-10-20T00:50:12.389Z,2.21
2022-10-20T00:52:41.381Z,2.13
2022-10-20T00:55:09.830Z,2.09
2022-10-20T00:57:37.619Z,1.92
2022-10-20T01:00:06.699Z,1.82
2022-10-20T01:02:33.344Z,1.87
2022-10-20T01:04:59.875Z,1.94
2022-10-20T01:07:26.530Z,2.00
2022-10-20T01:09:54.013Z,2.22
2022-10-20T01:12:38.645Z,2.35
2022-10-20T01:15:19.705Z,2.18
2022-10-20T01:18:03.029Z,2.26
2022-10-20T01:20:52.735Z,2.37
2022-10-20T01:23:25.338Z,2.44
2022-10-20T01:26:10.366Z,2.63
2022-10-20T01:28:50.261Z,2.60
2022-10-20T01:31:30.224Z,2.57
2022-10-20T01:34:03.846Z,2.53
2022-10-20T01:36:37.247Z,2.36
2022-10-20T01:39:14.189Z,2.53
2022-10-20T01:41:49.468Z,2.35
2022-10-20T01:44:18.684Z,2.57
2022-10-20T01:46:46.279Z,2.61
2022-10-20T01:49:14.817Z,2.60
2022-10-20T01:54:39.992Z,2.57
2022-10-20T01:57:38.730Z,2.48
2022-10-20T02:00:10.155Z,2.44
2022-10-20T02:03:04.865Z,2.44
2022-10-20T02:05:40.162Z,2.24
2022-10-20T02:08:20.632Z,2.04
2022-10-20T02:10:52.252Z,1.97
2022-10-20T02:13:21.200Z,1.87
2022-10-20T02:15:54.327Z,1.80
2022-10-20T02:18:27.324Z,1.64
2022-10-20T02:20:56.806Z,1.59
2022-10-20T02:23:23.470Z,1.64
2022-10-20T02:25:52.742Z,1.67
2022-10-20T02:28:20.211Z,1.75
2022-10-20T02:30:47.769Z,1.80
2022-10-20T02:33:16.511Z,1.64
2022-10-20T02:35:57.087Z,1.69
2022-10-20T02:38:23.959Z,1.60
2022-10-20T02:40:50.747Z,1.58
2022-10-20T02:43:17.447Z,1.48
2022-10-20T02:45:43.943Z,1.39
2022-10-20T02:48:10.497Z,1.33
2022-10-20T02:50:37.631Z,1.15
2022-10-20T02:53:05.448Z,1.30
2022-10-20T02:55:32.058Z,1.31
2022-10-20T02:57:58.762Z,1.23
2022-10-20T03:00:25.338Z,1.46
2022-10-20T03:02:53.136Z,1.64
2022-10-20T03:05:19.730Z,1.62
2022-10-20T03:07:46.263Z,1.65
2022-10-20T03:10:12.781Z,1.56
2022-10-20T03:12:39.578Z,1.40
2022-10-20T03:15:06.444Z,1.36
2022-10-20T03:17:33.220Z,1.40
2022-10-20T03:19:59.891Z,1.31
2022-10-20T03:22:26.523Z,1.22
2022-10-20T03:24:53.072Z,1.24
2022-10-20T03:27:19.763Z,1.02
2022-10-20T03:29:46.270Z,0.99
2022-10-20T03:32:12.856Z,1.06
2022-10-20T03:34:39.419Z,1.04
2022-10-20T03:37:06.221Z,1.04
2022-10-20T03:39:32.711Z,1.02
2022-10-20T03:41:59.312Z,1.03
2022-10-20T03:44:25.796Z,1.15
2022-10-20T03:46:52.327Z,1.31
2022-10-20T03:49:18.882Z,1.23
2022-10-20T03:51:45.490Z,1.47
2022-10-20T03:54:11.982Z,1.48
2022-10-20T03:56:38.662Z,1.51
2022-10-20T03:59:05.158Z,1.52
2022-10-20T04:01:33.233Z,1.48
2022-10-20T04:04:00.018Z,1.45
2022-10-20T04:06:26.728Z,1.45
2022-10-20T04:08:53.321Z,1.60
2022-10-20T04:11:20.102Z,1.29
2022-10-20T04:13:46.619Z,1.07
2022-10-20T04:16:13.185Z,0.69
2022-10-20T04:18:39.922Z,0.64
2022-10-20T04:21:06.551Z,0.70
2022-10-20T04:23:33.060Z,0.59
2022-10-20T04:25:59.673Z,0.77
2022-10-20T04:28:26.354Z,0.55
2022-10-20T04:30:53.043Z,0.33
2022-10-20T04:33:19.691Z,0.43
2022-10-20T04:35:46.398Z,0.47
2022-10-20T04:38:12.934Z,0.61
2022-10-20T04:40:39.551Z,0.49
2022-10-20T04:43:06.048Z,0.10
2022-10-20T04:45:32.667Z,0.01
2022-10-20T04:47:59.338Z,0.01
2022-10-20T04:50:25.907Z,0.16
2022-10-20T04:53:06.586Z,0.18
2022-10-20T04:55:33.430Z,-0.08
2022-10-20T04:58:00.010Z,0.21
2022-10-20T05:00:26.789Z,0.15
2022-10-20T05:02:54.527Z,0.22
2022-10-20T05:05:21.134Z,0.55
2022-10-20T05:07:47.654Z,0.79
2022-10-20T05:10:14.295Z,0.51
2022-10-20T05:12:40.784Z,0.22
2022-10-20T05:15:07.859Z,0.51
2022-10-20T05:17:34.710Z,0.48
2022-10-20T05:20:01.303Z,0.56
2022-10-20T05:22:27.954Z,0.48
2022-10-20T05:24:54.528Z,0.42
2022-10-20T05:27:21.055Z,0.47
2022-10-20T05:29:47.693Z,0.57
2022-10-20T05:32:14.213Z,0.54
2022-10-20T05:34:43.886Z,0.63
2022-10-20T05:37:10.498Z,0.54
2022-10-20T05:39:37.118Z,0.55
2022-10-20T05:42:03.762Z,0.33
2022-10-20T05:44:30.376Z,0.23
2022-10-20T05:46:56.906Z,0.19
2022-10-20T05:49:23.541Z,0.21
2022-10-20T05:51:50.275Z,0.38
2022-10-20T05:54:16.898Z,0.47
2022-10-20T05:56:43.763Z,0.25
2022-10-20T05:59:11.210Z,0.60
2022-10-20T06:01:37.742Z,0.89
2022-10-20T06:04:04.792Z,0.73
2022-10-20T06:06:31.483Z,0.86
2022-10-20T06:09:00.482Z,0.69
2022-10-20T06:11:27.578Z,0.67
2022-10-20T06:13:54.224Z,0.92
2022-10-20T06:16:23.564Z,0.94
2022-10-20T06:18:50.480Z,0.96
2022-10-20T06:21:20.170Z,0.71
2022-10-20T06:23:47.348Z,0.71
2022-10-20T06:26:16.395Z,0.63
2022-10-20T06:28:46.579Z,0.70
2022-10-20T06:31:21.977Z,0.78
2022-10-20T06:33:49.322Z,0.82
2022-10-20T06:36:16.921Z,0.82
2022-10-20T06:38:44.011Z,0.94
2022-10-20T06:41:12.520Z,0.84
2022-10-20T06:43:39.362Z,0.47
2022-10-20T06:46:08.286Z,0.74
2022-10-20T06:48:35.564Z,0.66
2022-10-20T06:51:06.972Z,0.70
2022-10-20T06:53:35.274Z,0.62
2022-10-20T06:56:07.212Z,0.73
2022-10-20T06:58:35.456Z,0.76
2022-10-20T07:01:10.001Z,0.94
2022-10-20T07:03:39.246Z,1.21
2022-10-20T07:06:06.971Z,1.25
2022-10-20T07:08:35.666Z,1.36
2022-10-20T07:11:11.877Z,1.53
2022-10-20T07:13:39.187Z,1.58
2022-10-20T07:16:07.848Z,1.61
2022-10-20T07:18:36.181Z,1.66
2022-10-20T07:21:05.992Z,1.82
2022-10-20T07:23:33.003Z,1.92
2022-10-20T07:26:10.111Z,1.94
2022-10-20T07:28:37.646Z,1.81
2022-10-20T07:31:13.251Z,1.89
2022-10-20T07:33:40.060Z,2.07
2022-10-20T07:36:14.743Z,2.03
2022-10-20T07:38:41.951Z,2.02
2022-10-20T07:41:09.068Z,1.90
2022-10-20T07:43:36.711Z,1.97
2022-10-20T07:46:03.714Z,2.22
2022-10-20T07:48:30.301Z,2.33
2022-10-20T07:51:15.918Z,2.18
2022-10-20T07:53:42.961Z,2.39
2022-10-20T07:56:10.270Z,2.42
2022-10-20T07:58:37.156Z,2.33
2022-10-20T08:01:04.516Z,2.65
2022-10-20T08:03:31.349Z,2.91
2022-10-20T08:05:58.105Z,2.80
2022-10-20T08:08:24.760Z,3.01
2022-10-20T08:10:51.431Z,2.96
2022-10-20T08:13:18.383Z,3.07
2022-10-20T08:15:51.726Z,3.02
2022-10-20T08:18:22.865Z,3.37
2022-10-20T08:20:49.707Z,3.56
2022-10-20T08:23:16.879Z,3.77
2022-10-20T08:25:44.011Z,3.92
2022-10-20T08:28:10.716Z,4.10
2022-10-20T08:30:37.612Z,4.14
2022-10-20T08:33:04.135Z,4.21
2022-10-20T08:35:30.835Z,4.35
2022-10-20T08:37:59.127Z,4.48
2022-10-20T08:40:30.223Z,4.50
2022-10-20T08:42:57.883Z,4.75
2022-10-20T08:45:26.473Z,4.77
2022-10-20T08:47:55.819Z,4.74
2022-10-20T08:50:23.622Z,4.63
2022-10-20T08:52:53.966Z,4.81
2022-10-20T08:55:27.080Z,5.06
2022-10-20T08:58:00.020Z,5.28
2022-10-20T09:00:27.172Z,5.31
2022-10-20T09:02:54.180Z,5.57
2022-10-20T09:05:26.021Z,5.75
2022-10-20T09:07:54.646Z,5.00
2022-10-20T09:10:35.335Z,5.69
2022-10-20T09:13:06.736Z,5.89
2022-10-20T09:15:33.680Z,6.19
2022-10-20T09:18:03.936Z,6.35
2022-10-20T09:20:36.148Z,6.04
2022-10-20T09:23:07.898Z,6.36
2022-10-20T09:25:44.004Z,6.79
2022-10-20T09:28:49.187Z,7.02
2022-10-20T09:31:33.050Z,7.13
2022-10-20T09:33:59.902Z,7.11
2022-10-20T09:36:33.702Z,6.96
2022-10-20T09:39:01.184Z,7.39
2022-10-20T09:41:32.241Z,7.37
2022-10-20T09:44:02.183Z,7.46
2022-10-20T09:46:34.544Z,7.59
2022-10-20T09:49:01.214Z,7.79
2022-10-20T09:51:29.601Z,7.77
2022-10-20T09:54:02.312Z,7.80
2022-10-20T09:56:46.899Z,7.90
2022-10-20T09:59:25.104Z,8.09
2022-10-20T10:02:03.795Z,8.08
2022-10-20T10:04:32.355Z,8.26
2022-10-20T10:06:59.125Z,8.26
2022-10-20T10:09:30.888Z,8.63
2022-10-20T10:12:03.361Z,8.70
2022-10-20T10:14:32.212Z,8.81
2022-10-20T10:17:00.101Z,8.83
2022-10-20T10:19:30.250Z,9.13
2022-10-20T10:22:03.962Z,9.42
2022-10-20T10:24:36.612Z,9.27
2022-10-20T10:27:03.303Z,9.16
2022-10-20T10:29:38.698Z,8.96
2022-10-20T10:32:16.561Z,9.07
2022-10-20T10:35:04.749Z,9.10
2022-10-20T10:37:34.737Z,8.86
2022-10-20T10:40:14.901Z,9.03
2022-10-20T10:43:08.988Z,8.97
2022-10-20T10:45:50.587Z,9.02
2022-10-20T10:48:51.076Z,8.77
2022-10-20T10:51:23.618Z,8.76
2022-10-20T10:54:02.459Z,9.00
2022-10-20T10:56:40.577Z,9.31
2022-10-20T10:59:31.497Z,8.93
2022-10-20T11:02:20.136Z,9.00
2022-10-20T11:05:28.456Z,8.92
2022-10-20T11:08:20.737Z,9.26
2022-10-20T11:11:12.734Z,9.41
2022-10-20T11:14:07.918Z,9.71
2022-10-20T11:17:01.956Z,9.36
2022-10-20T11:19:59.932Z,9.42
2022-10-20T11:22:35.745Z,9.62
2022-10-20T11:25:22.754Z,9.74
2022-10-20T11:27:50.190Z,9.30
2022-10-20T11:30:19.411Z,9.19
2022-10-20T11:32:58.022Z,9.30
2022-10-20T11:35:46.784Z,9.48
2022-10-20T11:38:27.015Z,9.41
2022-10-20T11:41:00.735Z,9.70
2022-10-20T11:43:39.852Z,9.66
2022-10-20T11:46:11.640Z,9.52
2022-10-20T11:48:50.477Z,9.78
2022-10-20T11:51:32.070Z,9.95
2022-10-20T11:54:10.537Z,10.24
2022-10-20T11:56:55.550Z,10.27
2022-10-20T11:59:40.944Z,10.55
2022-10-20T12:02:29.388Z,10.63
2022-10-20T12:05:17.154Z,10.48
2022-10-20T12:08:28.360Z,10.19
2022-10-20T12:11:10.898Z,10.22
2022-10-20T12:14:14.534Z,10.15
2022-10-20T12:16:53.126Z,10.39
2022-10-20T12:19:22.501Z,10.47
2022-10-20T12:22:13.785Z,10.62
2022-10-20T12:24:42.904Z,10.48
2022-10-20T12:27:09.373Z,10.43
2022-10-20T12:29:35.981Z,10.56
2022-10-20T12:32:27.236Z,10.85
2022-10-20T12:34:58.721Z,10.97
2022-10-20T12:37:25.248Z,11.30
2022-10-20T12:39:54.312Z,11.18
2022-10-20T12:42:27.831Z,11.19
2022-10-20T12:44:56.861Z,11.19
2022-10-20T12:47:29.336Z,11.30
2022-10-20T12:50:01.670Z,11.33
2022-10-20T12:52:31.687Z,11.04
2022-10-20T12:55:17.091Z,11.50
2022-10-20T12:57:45.181Z,11.47
2022-10-20T13:00:20.599Z,11.83
2022-10-20T13:02:48.992Z,12.14
2022-10-20T13:05:15.460Z,12.13
2022-10-20T13:07:48.172Z,12.19
2022-10-20T13:10:26.861Z,12.26
2022-10-20T13:12:54.285Z,12.40
2022-10-20T13:15:22.273Z,12.55
2022-10-20T13:17:57.632Z,12.69
2022-10-20T13:20:39.603Z,12.59
2022-10-20T13:23:13.196Z,12.46
2022-10-20T13:25:42.884Z,12.57
2022-10-20T13:28:24.642Z,12.60
2022-10-20T13:30:53.918Z,12.66
2022-10-20T13:33:38.893Z,12.67
2022-10-20T13:36:53.212Z,12.72
2022-10-20T13:39:36.328Z,12.76
2022-10-20T13:42:17.815Z,12.81
2022-10-20T13:45:07.796Z,12.87
2022-10-20T13:47:56.315Z,12.83
2022-10-20T13:50:36.738Z,12.44
2022-10-20T13:53:21.541Z,11.07
2022-10-20T13:56:18.464Z,10.83
2022-10-20T13:59:19.993Z,10.69
2022-10-20T14:02:29.649Z,10.57
2022-10-20T14:05:11.573Z,10.56
2022-10-20T14:07:44.548Z,10.67
2022-10-20T14:10:25.622Z,10.37
2022-10-20T14:12:55.475Z,10.61
2022-10-20T14:15:32.477Z,10.91
2022-10-20T14:18:25.449Z,10.50
2022-10-20T14:21:02.114Z,10.31
2022-10-20T14:23:36.489Z,10.95
2022-10-20T14:26:14.161Z,11.28
2022-10-20T14:28:44.321Z,11.32
2022-10-20T14:31:14.803Z,11.58
2022-10-20T14:33:52.151Z,11.70
2022-10-20T14:36:29.124Z,11.70
2022-10-20T14:38:59.258Z,11.77
2022-10-20T14:41:29.018Z,11.75
2022-10-20T14:44:12.257Z,11.99
2022-10-20T14:46:46.589Z,12.20
2022-10-20T14:49:27.956Z,12.26
2022-10-20T14:51:56.187Z,12.10
2022-10-20T14:54:37.623Z,12.09
2022-10-20T14:57:10.407Z,12.17
2022-10-20T14:59:50.473Z,12.24
2022-10-20T15:02:25.022Z,12.32
2022-10-20T15:04:52.071Z,12.32
2022-10-20T15:07:32.131Z,12.31
2022-10-20T15:10:17.214Z,12.34
2022-10-20T15:12:46.977Z,12.29
2022-10-20T15:15:13.449Z,12.31
2022-10-20T15:17:41.737Z,12.27
2022-10-20T15:20:30.127Z,12.20
2022-10-20T15:22:58.548Z,12.18
2022-10-20T15:25:26.904Z,12.07
2022-10-20T15:27:58.583Z,12.19
2022-10-20T15:30:26.504Z,12.18
2022-10-20T15:32:54.327Z,12.19
2022-10-20T15:35:22.408Z,11.86
2022-10-20T15:37:51.854Z,11.65
2022-10-20T15:40:20.244Z,11.67
2022-10-20T15:42:47.200Z,11.70
2022-10-20T15:45:22.876Z,11.76
2022-10-20T15:47:54.047Z,11.78
2022-10-20T15:50:22.980Z,11.82
2022-10-20T15:52:51.807Z,11.58
2022-10-20T15:55:27.495Z,11.74
2022-10-20T15:57:54.969Z,11.60
2022-10-20T16:00:24.190Z,11.68
2022-10-20T16:02:51.333Z,11.58
2022-10-20T16:05:20.651Z,11.54
2022-10-20T16:07:47.640Z,11.57
2022-10-20T16:10:14.149Z,11.64
2022-10-20T16:12:40.886Z,11.68
2022-10-20T16:15:09.169Z,11.72
2022-10-20T16:17:36.270Z,11.62
2022-10-20T16:20:05.010Z,11.65
2022-10-20T16:22:31.651Z,11.65
2022-10-20T16:24:58.180Z,11.55
2022-10-20T16:27:24.798Z,11.84
2022-10-20T16:29:51.425Z,12.29
2022-10-20T16:32:18.395Z,12.66
2022-10-20T16:34:45.002Z,12.96
2022-10-20T16:37:11.558Z,13.00
2022-10-20T16:39:38.132Z,13.28
2022-10-20T16:42:04.926Z,13.53
2022-10-20T16:44:31.600Z,13.74
2022-10-20T16:46:58.660Z,13.90
2022-10-20T16:49:25.444Z,13.76
2022-10-20T16:51:52.031Z,13.72
2022-10-20T16:54:18.794Z,13.60
2022-10-20T16:56:45.454Z,13.67
2022-10-20T16:59:11.977Z,13.44
2022-10-20T17:01:38.578Z,13.36
2022-10-20T17:04:05.583Z,13.19
2022-10-20T17:06:32.586Z,12.95
2022-10-20T17:08:59.896Z,13.11
2022-10-20T17:11:29.844Z,12.80
2022-10-20T17:13:58.156Z,12.93
2022-10-20T17:16:31.303Z,12.94
2022-10-20T17:19:00.702Z,12.97
2022-10-20T17:21:29.113Z,13.05
2022-10-20T17:23:57.860Z,13.00
2022-10-20T17:26:27.051Z,13.06
2022-10-20T17:28:55.286Z,12.62
2022-10-20T17:31:21.967Z,12.70
2022-10-20T17:33:49.715Z,12.87
2022-10-20T17:36:16.567Z,12.74
2022-10-20T17:38:43.758Z,12.82
2022-10-20T17:41:15.350Z,12.48
2022-10-20T17:43:42.155Z,12.49
2022-10-20T17:46:12.767Z,12.26
2022-10-20T17:48:39.979Z,12.32
2022-10-20T17:51:17.550Z,12.35
2022-10-20T17:53:46.196Z,12.39
2022-10-20T17:56:15.627Z,12.24
2022-10-20T17:58:44.182Z,12.22
2022-10-20T18:01:13.594Z,12.45
2022-10-20T18:03:41.304Z,12.15
2022-10-20T18:06:13.865Z,12.22
2022-10-20T18:08:41.625Z,12.03
2022-10-20T18:11:10.430Z,11.55
2022-10-20T18:13:37.928Z,11.54
2022-10-20T18:16:06.723Z,11.71
2022-10-20T18:18:33.562Z,11.66
2022-10-20T18:21:00.148Z,11.30
2022-10-20T18:23:26.812Z,11.52
2022-10-20T18:25:53.982Z,11.97
2022-10-20T18:28:20.631Z,12.02
2022-10-20T18:30:47.176Z,12.13
2022-10-20T18:33:13.741Z,12.02
2022-10-20T18:35:40.427Z,12.04
2022-10-20T18:38:07.160Z,11.93
2022-10-20T18:40:33.776Z,12.06
2022-10-20T18:43:00.573Z,11.99
2022-10-20T18:45:27.737Z,11.95
2022-10-20T18:47:54.428Z,11.80
2022-10-20T18:50:21.262Z,11.34
2022-10-20T18:52:48.153Z,11.43
2022-10-20T18:55:14.710Z,11.15
2022-10-20T18:57:41.333Z,10.95
2022-10-20T19:00:09.279Z,11.08
2022-10-20T19:02:36.025Z,10.47
2022-10-20T19:05:04.323Z,10.93
2022-10-20T19:07:34.837Z,11.06
2022-10-20T19:10:01.730Z,11.21
2022-10-20T19:12:28.294Z,11.20
2022-10-20T19:14:55.037Z,11.09
2022-10-20T19:17:21.720Z,11.07
2022-10-20T19:19:48.484Z,11.00
2022-10-20T19:22:15.000Z,11.17
2022-10-20T19:24:41.584Z,11.22
2022-10-20T19:27:25.741Z,11.09
2022-10-20T19:29:53.924Z,11.12
2022-10-20T19:32:20.472Z,11.12
2022-10-20T19:34:48.260Z,10.88
2022-10-20T19:37:14.809Z,10.78
2022-10-20T19:39:42.546Z,10.82
2022-10-20T19:42:10.270Z,10.91
2022-10-20T19:44:38.008Z,10.97
2022-10-20T19:47:05.360Z,11.02
2022-10-20T19:49:32.440Z,11.06
2022-10-20T19:51:59.600Z,11.07
2022-10-20T19:54:26.626Z,11.14
2022-10-20T19:56:55.616Z,10.96
2022-10-20T19:59:22.299Z,10.72
2022-10-20T20:01:49.695Z,10.18
2022-10-20T20:04:17.232Z,10.34
2022-10-20T20:06:46.182Z,10.43
2022-10-20T20:09:13.565Z,10.24
2022-10-20T20:11:40.528Z,10.37
2022-10-20T20:14:10.202Z,10.33
2022-10-20T20:16:39.800Z,10.11
2022-10-20T20:19:08.504Z,10.05
2022-10-20T20:21:38.891Z,10.15
2022-10-20T20:24:06.860Z,10.03
2022-10-20T20:26:39.953Z,10.16
2022-10-20T20:29:07.494Z,9.93
2022-10-20T20:31:37.961Z,10.34
2022-10-20T20:34:05.112Z,10.44
2022-10-20T20:36:32.462Z,10.06
2022-10-20T20:38:59.710Z,10.01
2022-10-20T20:41:29.611Z,10.11
2022-10-20T20:43:56.420Z,10.13
2022-10-20T20:46:24.890Z,10.32
2022-10-20T20:48:51.707Z,10.21
2022-10-20T20:51:18.972Z,10.38
2022-10-20T20:53:45.541Z,10.21
2022-10-20T20:56:15.006Z,9.84
2022-10-20T20:58:42.619Z,10.11
2022-10-20T21:01:13.423Z,10.04
2022-10-20T21:03:40.489Z,10.04
2022-10-20T21:06:09.755Z,10.45
2022-10-20T21:08:39.958Z,10.55
2022-10-20T21:11:11.863Z,10.64
2022-10-20T21:13:39.585Z,10.40
2022-10-20T21:16:15.553Z,10.58
2022-10-20T21:18:44.564Z,10.43
2022-10-20T21:21:17.012Z,10.22
2022-10-20T21:23:43.891Z,10.63
2022-10-20T21:26:12.540Z,10.73
2022-10-20T21:28:40.957Z,10.84
2022-10-20T21:31:09.726Z,10.83
2022-10-20T21:33:37.741Z,10.53
2022-10-20T21:36:09.944Z,9.99
2022-10-20T21:38:38.376Z,9.90
2022-10-20T21:41:07.079Z,9.46
2022-10-20T21:43:35.369Z,9.34
2022-10-20T21:46:17.728Z,9.42
2022-10-20T21:48:46.031Z,9.48
2022-10-20T21:51:12.510Z,9.68
2022-10-20T21:53:39.362Z,9.82
2022-10-20T21:56:07.300Z,9.98
2022-10-20T21:58:34.817Z,9.88
2022-10-20T22:01:12.249Z,9.77
2022-10-20T22:03:39.600Z,9.95
2022-10-20T22:06:07.515Z,10.00
2022-10-20T22:08:39.710Z,10.26
2022-10-20T22:11:11.961Z,10.32
2022-10-20T22:13:38.751Z,10.18
2022-10-20T22:16:06.807Z,10.27
2022-10-20T22:18:33.547Z,10.34
2022-10-20T22:21:12.381Z,10.50
2022-10-20T22:23:41.453Z,10.42
2022-10-20T22:26:08.786Z,10.37
2022-10-20T22:28:35.925Z,10.33
2022-10-20T22:31:03.218Z,10.44
2022-10-20T22:33:29.875Z,10.21
2022-10-20T22:35:56.601Z,9.14
2022-10-20T22:38:23.298Z,9.34
2022-10-20T22:40:50.014Z,9.58
2022-10-20T22:43:16.812Z,9.83
2022-10-20T22:45:43.458Z,9.97
2022-10-20T22:48:10.213Z,10.00
2022-10-20T22:50:37.277Z,10.34
2022-10-20T22:53:03.913Z,10.42
2022-10-20T22:55:30.757Z,10.36
2022-10-20T23:00:29.163Z,10.34
2022-10-20T23:02:55.848Z,10.29
2022-10-20T23:05:22.953Z,10.43
2022-10-20T23:07:49.563Z,10.40
2022-10-20T23:10:16.367Z,10.36
2022-10-20T23:12:43.177Z,10.20
2022-10-20T23:15:10.454Z,10.38
2022-10-20T23:17:37.773Z,10.48
2022-10-20T23:20:05.188Z,10.48
2022-10-20T23:22:31.727Z,10.40
2022-10-20T23:24:58.302Z,10.22
2022-10-20T23:27:24.882Z,10.22
2022-10-20T23:29:51.493Z,10.09
2022-10-20T23:32:18.039Z,10.10
2022-10-20T23:34:44.751Z,10.02
2022-10-20T23:37:11.264Z,9.94
2022-10-20T23:39:37.931Z,9.90
2022-10-20T23:42:07.196Z,10.00
2022-10-20T23:44:34.254Z,9.93
2022-10-20T23:47:00.826Z,10.01
2022-10-20T23:49:27.561Z,10.10
2022-10-20T23:51:54.135Z,10.14
2022-10-20T23:54:21.103Z,10.21
2022-10-20T23:56:47.731Z,10.15
2022-10-20T23:59:14.514Z,10.02
